Time;durP1;ratioP1;P1;durP2;ratioP2;P2;SDS_P1;SDS_P2;PMS_P1;PMS_P2;Temp;Humidity;BMP_temperature;BMP_pressure;BME280_temperature;BME280_humidity;BME280_pressure;Samples;Min_cycle;Max_cycle;Signal;HPM_P1;HPM_P2
2022/11/01 00:00:23;;;;;;;4.60;3.90;;;;;;;;;;5050696;28;20205;-78
2022/11/01 00:02:50;;;;;;;6.70;3.63;;;;;;;;;;5050557;28;20205;-77
2022/11/01 00:05:17;;;;;;;3.93;3.60;;;;;;;;;;5050358;28;20213;-78
2022/11/01 00:07:44;;;;;;;6.10;3.67;;;;;;;;;;5050441;28;20206;-77
2022/11/01 00:10:11;;;;;;;4.37;3.43;;;;;;;;;;5050578;28;20197;-77
2022/11/01 00:12:38;;;;;;;5.27;3.77;;;;;;;;;;5053653;28;20205;-77
2022/11/01 00:15:07;;;;;;;5.00;4.33;;;;;;;;;;5054560;28;20280;-77
2022/11/01 00:17:34;;;;;;;5.60;4.00;;;;;;;;;;5054466;28;20218;-77
2022/11/01 00:20:01;;;;;;;3.67;3.37;;;;;;;;;;5054689;28;20205;-78
2022/11/01 00:22:28;;;;;;;6.30;4.23;;;;;;;;;;5054277;28;20209;-78
2022/11/01 00:24:54;;;;;;;7.03;3.77;;;;;;;;;;5054758;28;20198;-77
2022/11/01 00:27:21;;;;;;;5.53;3.63;;;;;;;;;;5054374;28;20224;-78
2022/11/01 00:29:48;;;;;;;4.20;3.07;;;;;;;;;;5054296;28;20570;-77
2022/11/01 00:32:16;;;;;;;4.00;3.53;;;;;;;;;;5054535;28;20201;-78
2022/11/01 00:34:43;;;;;;;4.30;3.90;;;;;;;;;;5054067;28;20260;-78
2022/11/01 00:37:09;;;;;;;4.33;3.97;;;;;;;;;;5054512;28;20605;-78
2022/11/01 00:39:36;;;;;;;6.77;4.07;;;;;;;;;;5053733;28;20778;-78
2022/11/01 00:42:03;;;;;;;5.27;3.67;;;;;;;;;;5054369;28;20218;-78
2022/11/01 00:44:30;;;;;;;4.20;3.80;;;;;;;;;;5052911;28;20244;-77
2022/11/01 00:46:57;;;;;;;4.43;3.80;;;;;;;;;;5053727;28;20201;-77
2022/11/01 00:49:25;;;;;;;4.03;3.73;;;;;;;;;;5054065;28;20260;-78
2022/11/01 00:51:52;;;;;;;6.37;4.30;;;;;;;;;;5054150;28;20201;-78
2022/11/01 00:54:18;;;;;;;3.80;3.47;;;;;;;;;;5053393;28;20228;-78
2022/11/01 00:56:45;;;;;;;3.90;3.60;;;;;;;;;;5054212;28;20205;-78
2022/11/01 00:59:12;;;;;;;4.03;3.60;;;;;;;;;;5040036;28;20746;-78
2022/11/01 01:01:39;;;;;;;4.30;3.30;;;;;;;;;;5053924;28;20209;-78
2022/11/01 01:04:05;;;;;;;7.10;4.33;;;;;;;;;;5053499;28;20226;-78
2022/11/01 01:06:34;;;;;;;2.90;2.70;;;;;;;;;;5053738;28;20213;-78
2022/11/01 01:09:01;;;;;;;4.90;3.10;;;;;;;;;;5053424;28;20694;-78
2022/11/01 01:11:28;;;;;;;3.80;3.50;;;;;;;;;;5053589;28;20197;-78
2022/11/01 01:13:54;;;;;;;4.07;3.23;;;;;;;;;;5053576;28;20212;-78
2022/11/01 01:16:21;;;;;;;11.00;3.67;;;;;;;;;;5053289;28;20208;-78
2022/11/01 01:18:48;;;;;;;5.37;3.87;;;;;;;;;;5053768;28;20235;-78
2022/11/01 01:21:16;;;;;;;4.60;3.47;;;;;;;;;;5052879;28;20213;-78
2022/11/01 01:23:45;;;;;;;5.17;3.53;;;;;;;;;;5052590;28;20206;-78
2022/11/01 01:26:12;;;;;;;4.20;3.40;;;;;;;;;;5053262;28;20221;-78
2022/11/01 01:28:39;;;;;;;4.83;3.07;;;;;;;;;;5053694;28;20212;-78
2022/11/01 01:31:07;;;;;;;4.97;3.93;;;;;;;;;;5053280;28;20202;-78
2022/11/01 01:33:34;;;;;;;6.73;4.50;;;;;;;;;;5053126;28;20297;-78
2022/11/01 01:36:01;;;;;;;4.13;3.50;;;;;;;;;;5052890;28;20677;-78
2022/11/01 01:38:28;;;;;;;5.13;3.97;;;;;;;;;;5053451;28;20233;-78
2022/11/01 01:41:54;;;;;;;6.43;3.67;;;;;;;;;;5052971;28;20201;-78
2022/11/01 01:43:44;;;;;;;4.07;3.00;;;;;;;;;;5041718;28;20198;-78
2022/11/01 01:46:11;;;;;;;4.30;3.37;;;;;;;;;;5052653;28;20679;-78
2022/11/01 01:48:39;;;;;;;8.57;3.67;;;;;;;;;;5053082;28;20683;-78
2022/11/01 01:51:08;;;;;;;5.07;3.63;;;;;;;;;;5052606;28;20267;-77
2022/11/01 01:53:37;;;;;;;4.23;3.67;;;;;;;;;;5052879;28;20201;-77
2022/11/01 01:56:07;;;;;;;4.00;3.40;;;;;;;;;;5052334;28;20217;-78
2022/11/01 01:58:37;;;;;;;7.80;4.40;;;;;;;;;;5052405;28;20232;-78
2022/11/01 02:01:04;;;;;;;5.53;3.43;;;;;;;;;;5052269;28;20270;-78
2022/11/01 02:03:32;;;;;;;7.63;4.33;;;;;;;;;;5052449;28;20317;-78
2022/11/01 02:06:01;;;;;;;3.97;3.53;;;;;;;;;;5052500;28;20649;-78
2022/11/01 02:08:28;;;;;;;5.10;4.27;;;;;;;;;;5052863;28;20205;-78
2022/11/01 02:10:56;;;;;;;4.97;4.10;;;;;;;;;;5052477;28;20208;-78
2022/11/01 02:13:24;;;;;;;4.03;3.63;;;;;;;;;;5052125;28;20213;-78
2022/11/01 02:16:04;;;;;;;5.33;3.60;;;;;;;;;;5052430;28;20205;-78
2022/11/01 02:18:36;;;;;;;4.20;3.47;;;;;;;;;;5052406;28;20592;-78
2022/11/01 02:21:29;;;;;;;4.23;3.30;;;;;;;;;;5051838;28;20213;-78
2022/11/01 02:24:19;;;;;;;4.67;3.47;;;;;;;;;;5052077;28;20205;-78
2022/11/01 02:27:03;;;;;;;5.63;3.33;;;;;;;;;;5039731;28;20197;-78
2022/11/01 02:29:49;;;;;;;7.50;4.30;;;;;;;;;;5046809;28;20207;-78
2022/11/01 02:32:20;;;;;;;3.53;3.17;;;;;;;;;;5051508;28;20642;-78
2022/11/01 02:34:52;;;;;;;3.97;3.67;;;;;;;;;;5051599;28;20202;-78
2022/11/01 02:37:25;;;;;;;3.67;3.37;;;;;;;;;;5051951;28;20676;-78
2022/11/01 02:39:56;;;;;;;5.03;3.43;;;;;;;;;;5051719;28;20279;-78
2022/11/01 02:42:26;;;;;;;5.40;3.70;;;;;;;;;;5051993;28;20205;-78
2022/11/01 02:44:56;;;;;;;4.23;3.60;;;;;;;;;;5051504;28;20216;-78
2022/11/01 02:47:25;;;;;;;4.80;3.53;;;;;;;;;;5051990;28;20206;-77
2022/11/01 02:49:54;;;;;;;6.63;3.27;;;;;;;;;;5051551;28;20752;-78
2022/11/01 02:52:24;;;;;;;3.87;3.47;;;;;;;;;;5051447;28;20646;-77
2022/11/01 02:54:53;;;;;;;4.33;3.23;;;;;;;;;;5051653;28;20569;-78
2022/11/01 02:57:28;;;;;;;4.30;3.73;;;;;;;;;;5051235;28;20198;-78
2022/11/01 03:00:01;;;;;;;8.17;4.43;;;;;;;;;;5051355;28;20232;-78
2022/11/01 03:02:39;;;;;;;4.27;3.70;;;;;;;;;;5051394;28;20289;-78
2022/11/01 03:05:07;;;;;;;4.20;3.87;;;;;;;;;;5051811;28;20758;-77
2022/11/01 03:07:35;;;;;;;4.60;3.50;;;;;;;;;;5050838;28;20205;-77
2022/11/01 03:10:03;;;;;;;5.37;3.20;;;;;;;;;;5050019;28;20204;-78
2022/11/01 03:12:33;;;;;;;3.23;3.03;;;;;;;;;;5042990;28;20202;-78
2022/11/01 03:15:03;;;;;;;4.47;3.40;;;;;;;;;;5050287;28;20750;-78
2022/11/01 03:17:34;;;;;;;5.40;3.63;;;;;;;;;;5051307;28;20210;-78
2022/11/01 03:20:06;;;;;;;3.47;3.13;;;;;;;;;;5050645;28;20225;-78
2022/11/01 03:22:42;;;;;;;5.40;3.60;;;;;;;;;;5051233;28;20213;-77
2022/11/01 03:27:53;;;;;;;6.67;3.93;;;;;;;;;;5048501;28;20227;-76
2022/11/01 03:30:20;;;;;;;7.63;3.97;;;;;;;;;;5050745;28;20205;-76
2022/11/01 03:32:51;;;;;;;5.23;4.03;;;;;;;;;;5050501;28;20198;-76
2022/11/01 03:35:21;;;;;;;4.20;3.40;;;;;;;;;;5050652;28;20198;-76
2022/11/01 03:37:49;;;;;;;7.77;5.13;;;;;;;;;;5050509;28;20210;-76
2022/11/01 03:40:17;;;;;;;4.20;3.73;;;;;;;;;;5050640;28;20741;-76
2022/11/01 03:42:46;;;;;;;5.77;3.93;;;;;;;;;;5050266;28;20637;-76
2022/11/01 03:45:14;;;;;;;7.70;3.50;;;;;;;;;;5050005;28;20217;-76
2022/11/01 03:47:41;;;;;;;5.07;3.90;;;;;;;;;;5048760;28;20208;-76
2022/11/01 03:50:14;;;;;;;5.13;3.47;;;;;;;;;;5050182;28;20202;-76
2022/11/01 03:52:41;;;;;;;5.67;3.77;;;;;;;;;;5050621;28;20267;-76
2022/11/01 03:55:18;;;;;;;4.57;4.13;;;;;;;;;;5049522;28;20213;-76
2022/11/01 03:57:45;;;;;;;4.40;3.50;;;;;;;;;;5050017;28;20236;-76
2022/11/01 04:00:15;;;;;;;6.40;3.70;;;;;;;;;;5049805;28;20815;-76
2022/11/01 04:02:42;;;;;;;4.60;3.67;;;;;;;;;;5050259;28;20244;-76
2022/11/01 04:05:12;;;;;;;3.90;3.50;;;;;;;;;;5050240;28;20229;-76
2022/11/01 04:07:39;;;;;;;4.33;3.93;;;;;;;;;;5049667;28;20201;-75
2022/11/01 04:10:07;;;;;;;5.60;3.23;;;;;;;;;;5050038;28;20202;-76
2022/11/01 04:12:33;;;;;;;5.83;3.83;;;;;;;;;;5050332;28;20197;-76
2022/11/01 04:20:54;;;;;;;7.00;3.13;;;;;;;;;;5045887;28;20261;-77
2022/11/01 04:23:21;;;;;;;5.53;3.57;;;;;;;;;;5050281;28;20214;-76
2022/11/01 04:25:48;;;;;;;3.67;3.30;;;;;;;;;;5050054;28;20206;-76
2022/11/01 04:28:15;;;;;;;4.23;3.83;;;;;;;;;;5047979;28;20206;-76
2022/11/01 04:30:42;;;;;;;5.20;3.67;;;;;;;;;;5049253;28;20604;-76
2022/11/01 04:33:09;;;;;;;6.03;4.20;;;;;;;;;;5049860;28;20206;-76
2022/11/01 04:35:37;;;;;;;3.63;3.33;;;;;;;;;;5049311;28;20221;-76
2022/11/01 04:38:06;;;;;;;6.33;3.83;;;;;;;;;;5050312;28;20624;-77
2022/11/01 04:40:33;;;;;;;3.63;3.30;;;;;;;;;;5049615;28;20650;-77
2022/11/01 04:43:00;;;;;;;5.13;3.67;;;;;;;;;;5050165;28;20229;-77
2022/11/01 04:45:27;;;;;;;9.60;3.47;;;;;;;;;;5049777;28;20263;-77
2022/11/01 04:48:05;;;;;;;4.47;3.37;;;;;;;;;;5049329;28;21121;-77
2022/11/01 04:50:32;;;;;;;9.63;3.60;;;;;;;;;;5049818;28;20201;-77
2022/11/01 04:52:59;;;;;;;8.90;3.70;;;;;;;;;;5048702;28;20202;-77
2022/11/01 04:55:28;;;;;;;4.13;3.73;;;;;;;;;;5049542;28;20225;-77
2022/11/01 04:57:55;;;;;;;6.40;3.50;;;;;;;;;;5050549;28;20201;-77
2022/11/01 05:00:22;;;;;;;4.90;4.07;;;;;;;;;;5051911;28;20225;-77
2022/11/01 05:02:49;;;;;;;3.73;3.33;;;;;;;;;;5052336;28;20664;-77
2022/11/01 05:05:17;;;;;;;6.90;4.13;;;;;;;;;;5052760;28;20201;-77
2022/11/01 05:07:44;;;;;;;9.13;7.13;;;;;;;;;;5053756;28;20202;-77
2022/11/01 05:10:12;;;;;;;14.40;11.00;;;;;;;;;;5051399;28;20201;-78
2022/11/01 05:12:40;;;;;;;13.40;7.07;;;;;;;;;;5037663;28;20198;-78
2022/11/01 05:15:08;;;;;;;7.17;6.50;;;;;;;;;;5049221;28;20755;-77
2022/11/01 05:17:35;;;;;;;10.30;6.57;;;;;;;;;;5053122;28;20296;-78
2022/11/01 05:20:02;;;;;;;7.10;5.50;;;;;;;;;;5052601;28;20237;-78
2022/11/01 05:22:28;;;;;;;6.97;4.83;;;;;;;;;;5053426;28;20202;-78
2022/11/01 05:24:55;;;;;;;7.00;4.10;;;;;;;;;;5052335;28;20213;-78
2022/11/01 05:27:22;;;;;;;6.43;5.03;;;;;;;;;;5053113;28;20213;-78
2022/11/01 05:29:51;;;;;;;7.80;5.97;;;;;;;;;;5052502;28;20213;-77
2022/11/01 05:32:18;;;;;;;13.27;7.17;;;;;;;;;;5052001;28;20206;-77
2022/11/01 05:34:48;;;;;;;7.97;6.50;;;;;;;;;;5051614;28;20214;-78
2022/11/01 05:37:16;;;;;;;9.67;7.10;;;;;;;;;;5052652;28;20206;-78
2022/11/01 05:39:43;;;;;;;5.43;4.17;;;;;;;;;;5049755;28;20304;-78
2022/11/01 05:42:09;;;;;;;5.10;4.60;;;;;;;;;;5051550;28;20684;-78
2022/11/01 05:44:36;;;;;;;12.70;6.07;;;;;;;;;;5052986;28;20202;-78
2022/11/01 05:47:05;;;;;;;9.87;7.77;;;;;;;;;;5052626;28;20660;-77
2022/11/01 05:49:32;;;;;;;4.70;4.17;;;;;;;;;;5052416;28;20215;-78
2022/11/01 05:51:59;;;;;;;12.03;7.77;;;;;;;;;;5052509;28;20626;-78
2022/11/01 05:54:26;;;;;;;10.07;6.00;;;;;;;;;;5052230;28;20206;-78
2022/11/01 05:56:52;;;;;;;11.13;8.47;;;;;;;;;;5052852;28;20238;-78
2022/11/01 05:59:19;;;;;;;16.97;8.23;;;;;;;;;;5052355;28;20225;-78
2022/11/01 06:01:46;;;;;;;13.17;7.67;;;;;;;;;;5052500;28;20210;-78
2022/11/01 06:04:14;;;;;;;9.53;5.83;;;;;;;;;;5052196;28;20233;-78
2022/11/01 06:06:40;;;;;;;7.87;5.00;;;;;;;;;;5052326;28;20202;-78
2022/11/01 06:09:08;;;;;;;7.57;4.60;;;;;;;;;;5051387;28;20206;-78
2022/11/01 06:11:35;;;;;;;7.13;5.53;;;;;;;;;;5052258;28;20202;-77
2022/11/01 06:14:02;;;;;;;6.53;4.20;;;;;;;;;;5052223;28;20205;-78
2022/11/01 06:16:28;;;;;;;6.93;4.77;;;;;;;;;;5052261;28;20206;-78
2022/11/01 06:18:55;;;;;;;8.57;5.70;;;;;;;;;;5052108;28;20209;-78
2022/11/01 06:21:23;;;;;;;5.73;5.10;;;;;;;;;;5051880;28;20206;-78
2022/11/01 06:23:50;;;;;;;12.23;4.97;;;;;;;;;;5052115;28;20210;-78
2022/11/01 06:26:17;;;;;;;5.80;5.13;;;;;;;;;;5051603;28;20754;-78
2022/11/01 06:28:44;;;;;;;9.47;5.63;;;;;;;;;;5051252;28;20292;-78
2022/11/01 06:31:11;;;;;;;9.70;6.03;;;;;;;;;;5045972;28;20639;-78
2022/11/01 06:33:38;;;;;;;6.13;5.13;;;;;;;;;;5051903;28;20669;-78
2022/11/01 06:36:06;;;;;;;6.63;5.93;;;;;;;;;;5051684;28;20201;-78
2022/11/01 06:38:34;;;;;;;8.67;4.77;;;;;;;;;;5051876;28;20205;-78
2022/11/01 06:41:01;;;;;;;8.50;4.73;;;;;;;;;;5045181;28;20651;-78
2022/11/01 06:43:28;;;;;;;6.50;5.40;;;;;;;;;;5052417;28;20640;-78
2022/11/01 06:45:54;;;;;;;7.77;4.20;;;;;;;;;;5051532;28;20586;-78
2022/11/01 06:48:21;;;;;;;7.10;4.67;;;;;;;;;;5051602;28;20240;-79
2022/11/01 06:50:48;;;;;;;4.50;4.13;;;;;;;;;;5050941;28;20205;-78
2022/11/01 06:53:15;;;;;;;9.80;4.30;;;;;;;;;;5051683;28;20198;-78
2022/11/01 06:55:43;;;;;;;8.53;4.77;;;;;;;;;;5051651;28;20588;-78
2022/11/01 06:58:09;;;;;;;8.47;5.37;;;;;;;;;;5051411;28;20594;-78
2022/11/01 07:00:36;;;;;;;14.57;8.40;;;;;;;;;;5051109;28;20222;-78
2022/11/01 07:03:05;;;;;;;12.07;6.93;;;;;;;;;;5051268;28;20216;-78
2022/11/01 07:05:33;;;;;;;7.77;4.57;;;;;;;;;;5051053;28;20208;-79
2022/11/01 07:08:00;;;;;;;12.40;5.70;;;;;;;;;;5051406;28;20201;-78
2022/11/01 07:10:27;;;;;;;9.20;4.50;;;;;;;;;;5051121;28;20211;-79
2022/11/01 07:12:58;;;;;;;9.53;4.63;;;;;;;;;;5051445;28;20272;-78
2022/11/01 07:15:25;;;;;;;8.97;4.67;;;;;;;;;;5051005;28;20291;-78
2022/11/01 07:17:55;;;;;;;11.60;4.77;;;;;;;;;;5050159;28;20207;-79
2022/11/01 07:20:22;;;;;;;8.17;4.43;;;;;;;;;;5050339;28;20229;-78
2022/11/01 07:22:57;;;;;;;7.77;4.60;;;;;;;;;;5050658;28;20206;-78
2022/11/01 07:25:23;;;;;;;9.63;4.30;;;;;;;;;;5050886;28;20201;-78
2022/11/01 07:27:50;;;;;;;8.87;4.43;;;;;;;;;;5050934;28;20692;-78
2022/11/01 07:30:18;;;;;;;6.10;3.50;;;;;;;;;;5050427;28;20202;-79
2022/11/01 07:32:45;;;;;;;9.80;4.17;;;;;;;;;;5050903;28;20201;-78
2022/11/01 07:35:12;;;;;;;4.70;3.97;;;;;;;;;;5050606;28;20613;-78
2022/11/01 07:37:38;;;;;;;4.30;3.83;;;;;;;;;;5050466;28;20202;-78
2022/11/01 07:40:06;;;;;;;6.17;3.43;;;;;;;;;;5050485;28;20222;-78
2022/11/01 07:42:32;;;;;;;3.73;3.30;;;;;;;;;;5050759;28;20634;-79
2022/11/01 07:44:59;;;;;;;4.53;3.30;;;;;;;;;;5049656;28;20623;-80
2022/11/01 07:47:27;;;;;;;6.30;4.30;;;;;;;;;;5051275;28;20202;-78
2022/11/01 07:49:54;;;;;;;4.20;3.27;;;;;;;;;;5050617;28;20210;-78
2022/11/01 07:52:21;;;;;;;13.17;3.63;;;;;;;;;;5050540;28;20205;-78
2022/11/01 07:54:49;;;;;;;5.53;2.93;;;;;;;;;;5050558;28;20201;-78
2022/11/01 07:57:16;;;;;;;3.80;3.40;;;;;;;;;;5050123;28;20194;-78
2022/11/01 07:59:42;;;;;;;4.70;3.93;;;;;;;;;;5050416;28;20217;-79
2022/11/01 08:02:09;;;;;;;6.63;3.77;;;;;;;;;;5050527;28;20210;-78
2022/11/01 08:04:37;;;;;;;3.87;3.07;;;;;;;;;;5049856;28;20230;-78
2022/11/01 08:07:04;;;;;;;7.27;3.30;;;;;;;;;;5050853;28;20202;-79
2022/11/01 08:09:31;;;;;;;3.57;3.27;;;;;;;;;;5050434;28;20210;-79
2022/11/01 08:11:58;;;;;;;3.60;3.30;;;;;;;;;;5050167;28;21686;-79
2022/11/01 08:14:25;;;;;;;4.63;3.30;;;;;;;;;;5049897;28;20684;-78
2022/11/01 08:16:54;;;;;;;7.83;3.43;;;;;;;;;;5050250;28;20217;-78
2022/11/01 08:19:21;;;;;;;3.70;2.97;;;;;;;;;;5050334;28;20288;-78
2022/11/01 08:21:50;;;;;;;4.50;3.10;;;;;;;;;;5050487;28;20222;-78
2022/11/01 08:24:17;;;;;;;4.27;3.87;;;;;;;;;;5049395;28;20206;-78
2022/11/01 08:26:44;;;;;;;4.77;3.87;;;;;;;;;;5049866;28;20202;-79
2022/11/01 08:29:10;;;;;;;6.47;4.30;;;;;;;;;;5050363;28;20201;-78
2022/11/01 08:31:39;;;;;;;8.23;3.40;;;;;;;;;;5050241;28;20205;-78
2022/11/01 08:34:06;;;;;;;6.97;3.73;;;;;;;;;;5054129;28;20209;-78
2022/11/01 08:36:33;;;;;;;6.73;4.10;;;;;;;;;;5053953;28;20209;-79
2022/11/01 08:39:04;;;;;;;9.50;5.17;;;;;;;;;;5054151;28;20206;-78
2022/11/01 08:41:30;;;;;;;7.67;4.27;;;;;;;;;;5053891;28;20291;-78
2022/11/01 08:43:58;;;;;;;7.17;4.37;;;;;;;;;;5054216;28;20202;-78
2022/11/01 08:46:24;;;;;;;6.63;4.50;;;;;;;;;;5054198;28;20213;-78
2022/11/01 08:48:55;;;;;;;9.57;5.13;;;;;;;;;;5054050;28;20198;-78
2022/11/01 08:51:24;;;;;;;6.70;4.73;;;;;;;;;;5053844;28;20202;-78
2022/11/01 08:53:51;;;;;;;11.30;5.70;;;;;;;;;;5053075;28;20741;-78
2022/11/01 08:56:20;;;;;;;13.47;5.20;;;;;;;;;;5053612;28;20599;-78
2022/11/01 08:58:48;;;;;;;12.90;6.40;;;;;;;;;;5054140;28;20297;-78
2022/11/01 09:01:15;;;;;;;11.40;7.07;;;;;;;;;;5053514;28;20225;-79
2022/11/01 09:03:42;;;;;;;9.73;6.07;;;;;;;;;;5053185;28;20226;-78
2022/11/01 09:06:09;;;;;;;11.03;6.00;;;;;;;;;;5053507;28;20202;-79
2022/11/01 09:08:35;;;;;;;17.87;6.97;;;;;;;;;;5054168;28;20202;-78
2022/11/01 09:11:02;;;;;;;13.50;6.80;;;;;;;;;;5053280;28;20282;-78
2022/11/01 09:13:30;;;;;;;9.27;6.03;;;;;;;;;;5053866;28;20201;-78
2022/11/01 09:15:57;;;;;;;5.67;4.87;;;;;;;;;;5053343;28;20194;-78
2022/11/01 09:18:24;;;;;;;10.43;5.23;;;;;;;;;;5053448;28;20563;-78
2022/11/01 09:20:54;;;;;;;10.73;6.03;;;;;;;;;;5053108;28;20229;-79
2022/11/01 09:23:21;;;;;;;8.23;5.53;;;;;;;;;;5052906;28;20305;-78
2022/11/01 09:25:48;;;;;;;7.57;6.00;;;;;;;;;;5053362;28;20213;-78
2022/11/01 09:28:15;;;;;;;10.43;5.67;;;;;;;;;;5053452;28;20209;-78
2022/11/01 09:30:43;;;;;;;6.17;5.57;;;;;;;;;;5053558;28;20289;-78
2022/11/01 09:33:09;;;;;;;6.10;4.53;;;;;;;;;;5052675;28;20672;-78
2022/11/01 09:35:36;;;;;;;9.00;5.87;;;;;;;;;;5052980;28;20214;-79
2022/11/01 09:38:03;;;;;;;7.93;5.93;;;;;;;;;;5053567;28;20202;-78
2022/11/01 09:40:34;;;;;;;8.37;4.73;;;;;;;;;;5052839;28;20315;-77
2022/11/01 09:43:02;;;;;;;10.30;5.10;;;;;;;;;;5052885;28;20646;-78
2022/11/01 09:45:31;;;;;;;7.03;5.13;;;;;;;;;;5051759;28;20198;-78
2022/11/01 09:48:01;;;;;;;8.77;5.17;;;;;;;;;;5052445;28;20202;-78
2022/11/01 09:50:33;;;;;;;9.77;5.80;;;;;;;;;;5052850;28;20198;-78
2022/11/01 09:53:01;;;;;;;6.40;4.93;;;;;;;;;;5052867;28;20267;-78
2022/11/01 09:55:38;;;;;;;5.57;5.00;;;;;;;;;;5052712;28;20197;-78
2022/11/01 09:58:09;;;;;;;11.13;5.70;;;;;;;;;;5053334;28;20212;-79
2022/11/01 10:00:42;;;;;;;8.87;5.43;;;;;;;;;;5051883;28;20222;-79
2022/11/01 10:03:41;;;;;;;6.10;5.43;;;;;;;;;;5052790;28;20237;-78
2022/11/01 10:06:14;;;;;;;6.67;4.57;;;;;;;;;;5039372;28;20194;-80
2022/11/01 10:08:53;;;;;;;4.40;3.80;;;;;;;;;;5051946;28;20201;-79
2022/11/01 10:11:44;;;;;;;6.13;4.93;;;;;;;;;;5052635;28;20201;-79
2022/11/01 10:14:21;;;;;;;5.53;4.93;;;;;;;;;;5052278;28;20198;-79
2022/11/01 10:16:58;;;;;;;6.57;4.33;;;;;;;;;;5052578;28;20206;-79
2022/11/01 10:19:31;;;;;;;7.67;4.77;;;;;;;;;;5051898;28;20205;-78
2022/11/01 10:22:02;;;;;;;7.57;5.07;;;;;;;;;;5052655;28;20319;-78
2022/11/01 10:24:33;;;;;;;8.10;4.43;;;;;;;;;;5052401;28;20614;-79
2022/11/01 10:27:04;;;;;;;22.63;5.27;;;;;;;;;;5052176;28;20232;-79
2022/11/01 10:29:36;;;;;;;5.70;5.00;;;;;;;;;;5051757;28;20208;-79
2022/11/01 10:32:04;;;;;;;5.67;4.97;;;;;;;;;;5052101;28;20268;-79
2022/11/01 10:34:34;;;;;;;8.93;4.60;;;;;;;;;;5051758;28;20711;-79
2022/11/01 10:37:11;;;;;;;5.17;4.67;;;;;;;;;;5052088;28;20228;-78
2022/11/01 10:39:41;;;;;;;5.47;4.10;;;;;;;;;;5051757;28;20202;-79
2022/11/01 10:42:09;;;;;;;7.43;4.80;;;;;;;;;;5051820;28;20222;-79
2022/11/01 10:44:38;;;;;;;6.40;4.33;;;;;;;;;;5052214;28;20210;-79
2022/11/01 10:47:07;;;;;;;8.40;4.97;;;;;;;;;;5051641;28;20206;-79
2022/11/01 10:49:37;;;;;;;5.43;3.77;;;;;;;;;;5051546;28;20238;-78
2022/11/01 10:52:07;;;;;;;9.13;4.30;;;;;;;;;;5051521;28;20202;-79
2022/11/01 10:54:37;;;;;;;6.50;4.30;;;;;;;;;;5051456;28;20202;-79
2022/11/01 10:57:08;;;;;;;8.43;4.67;;;;;;;;;;5051445;28;20201;-80
2022/11/01 10:59:36;;;;;;;6.17;5.00;;;;;;;;;;5051501;28;20201;-80
2022/11/01 11:02:08;;;;;;;5.27;3.83;;;;;;;;;;5051283;28;20233;-79
2022/11/01 11:04:36;;;;;;;7.97;3.90;;;;;;;;;;5051499;28;20230;-79
2022/11/01 11:07:03;;;;;;;4.60;3.73;;;;;;;;;;5051146;28;20585;-80
2022/11/01 11:09:33;;;;;;;13.10;4.60;;;;;;;;;;5051319;28;20213;-79
2022/11/01 11:12:03;;;;;;;5.63;3.83;;;;;;;;;;5051360;28;20205;-79
2022/11/01 11:14:31;;;;;;;6.60;4.10;;;;;;;;;;5051283;28;20193;-79
2022/11/01 11:16:59;;;;;;;6.00;3.70;;;;;;;;;;5051071;28;20202;-79
2022/11/01 11:19:32;;;;;;;4.60;3.23;;;;;;;;;;5050952;28;20202;-79
2022/11/01 11:22:04;;;;;;;11.10;3.70;;;;;;;;;;5051485;28;20229;-78
2022/11/01 11:24:33;;;;;;;9.67;5.00;;;;;;;;;;5050787;28;20240;-79
2022/11/01 11:27:01;;;;;;;10.60;3.97;;;;;;;;;;5051307;28;20211;-79
2022/11/01 11:29:35;;;;;;;7.70;4.03;;;;;;;;;;5050346;28;20194;-79
2022/11/01 11:32:03;;;;;;;6.20;3.90;;;;;;;;;;5050897;28;20205;-79
2022/11/01 11:34:32;;;;;;;4.23;3.90;;;;;;;;;;5050455;28;20212;-80
2022/11/01 11:37:00;;;;;;;7.37;3.50;;;;;;;;;;5050816;28;20285;-80
2022/11/01 11:39:29;;;;;;;6.27;3.10;;;;;;;;;;5050980;28;20198;-79
2022/11/01 11:42:10;;;;;;;3.30;3.00;;;;;;;;;;5050947;28;20252;-79
2022/11/01 11:44:43;;;;;;;4.60;3.40;;;;;;;;;;5050517;28;20205;-79
2022/11/01 11:47:21;;;;;;;4.83;3.53;;;;;;;;;;5050689;28;20194;-79
2022/11/01 11:49:49;;;;;;;7.80;3.57;;;;;;;;;;5050354;28;20641;-79
2022/11/01 11:52:19;;;;;;;3.83;3.03;;;;;;;;;;5050465;28;20702;-79
2022/11/01 11:54:46;;;;;;;4.93;3.20;;;;;;;;;;5050551;28;20205;-79
2022/11/01 11:57:17;;;;;;;8.10;3.20;;;;;;;;;;5050706;28;20610;-80
2022/11/01 11:59:46;;;;;;;5.47;3.23;;;;;;;;;;5050783;28;20630;-79
2022/11/01 12:02:18;;;;;;;5.67;2.83;;;;;;;;;;5050455;28;20233;-80
2022/11/01 12:04:48;;;;;;;4.90;2.47;;;;;;;;;;5050393;28;20712;-79
2022/11/01 12:07:28;;;;;;;8.47;2.97;;;;;;;;;;5050042;28;20198;-79
2022/11/01 12:09:55;;;;;;;5.47;2.77;;;;;;;;;;5050382;28;20229;-78
2022/11/01 12:12:25;;;;;;;6.80;3.40;;;;;;;;;;5050768;28;20225;-78
2022/11/01 12:14:52;;;;;;;5.23;3.40;;;;;;;;;;5050436;28;20198;-79
2022/11/01 12:17:23;;;;;;;3.53;3.00;;;;;;;;;;5050550;28;20209;-78
2022/11/01 12:19:55;;;;;;;4.47;2.67;;;;;;;;;;5050370;28;20201;-79
2022/11/01 12:22:22;;;;;;;4.43;3.10;;;;;;;;;;5050010;28;20658;-79
2022/11/01 12:24:52;;;;;;;4.13;3.33;;;;;;;;;;5050148;28;20248;-79
2022/11/01 12:27:22;;;;;;;4.90;2.50;;;;;;;;;;5050738;28;20205;-79
2022/11/01 12:29:52;;;;;;;5.33;2.77;;;;;;;;;;5050334;28;20217;-79
2022/11/01 12:32:21;;;;;;;3.60;2.67;;;;;;;;;;5050784;28;20209;-78
2022/11/01 12:34:49;;;;;;;3.17;2.60;;;;;;;;;;5050177;28;20550;-79
2022/11/01 12:37:18;;;;;;;3.70;2.57;;;;;;;;;;5050043;28;20209;-79
2022/11/01 12:39:53;;;;;;;2.90;2.70;;;;;;;;;;5050077;28;20568;-80
2022/11/01 12:42:24;;;;;;;6.50;2.70;;;;;;;;;;5049940;28;20225;-79
2022/11/01 12:44:53;;;;;;;4.57;3.03;;;;;;;;;;5049965;28;20236;-79
2022/11/01 12:47:24;;;;;;;3.20;2.63;;;;;;;;;;5049837;28;20198;-79
2022/11/01 12:49:55;;;;;;;8.30;3.57;;;;;;;;;;5050304;28;20590;-79
2022/11/01 12:52:32;;;;;;;6.03;3.27;;;;;;;;;;5050267;28;20293;-79
2022/11/01 12:55:06;;;;;;;7.67;3.33;;;;;;;;;;5049903;28;20202;-79
2022/11/01 12:57:33;;;;;;;5.63;2.93;;;;;;;;;;5036454;28;20205;-79
2022/11/01 13:00:03;;;;;;;6.67;2.93;;;;;;;;;;5050144;28;20213;-78
2022/11/01 13:02:40;;;;;;;3.97;3.20;;;;;;;;;;5049895;28;20229;-78
2022/11/01 13:05:14;;;;;;;3.60;3.00;;;;;;;;;;5050036;28;20233;-79
2022/11/01 13:07:51;;;;;;;3.60;3.17;;;;;;;;;;5050019;28;20305;-79
2022/11/01 13:10:29;;;;;;;3.43;3.00;;;;;;;;;;5049718;28;20214;-79
2022/11/01 13:13:03;;;;;;;5.30;3.47;;;;;;;;;;5050216;28;20202;-79
2022/11/01 13:15:35;;;;;;;5.33;3.00;;;;;;;;;;5049627;28;20292;-80
2022/11/01 13:18:08;;;;;;;5.53;3.10;;;;;;;;;;5050176;28;20648;-78
2022/11/01 13:20:42;;;;;;;4.97;3.40;;;;;;;;;;5052488;28;20224;-79
2022/11/01 13:23:16;;;;;;;5.93;2.60;;;;;;;;;;5053334;28;20221;-79
2022/11/01 13:25:50;;;;;;;4.67;2.53;;;;;;;;;;5053247;28;20602;-78
2022/11/01 13:28:24;;;;;;;3.23;2.60;;;;;;;;;;5053391;28;20688;-80
2022/11/01 13:30:56;;;;;;;5.47;3.10;;;;;;;;;;5053440;28;20282;-78
2022/11/01 13:33:30;;;;;;;2.27;2.07;;;;;;;;;;5053054;28;20216;-78
2022/11/01 13:35:59;;;;;;;4.77;2.60;;;;;;;;;;5053817;28;20613;-79
2022/11/01 13:38:33;;;;;;;4.33;2.87;;;;;;;;;;5053122;28;20206;-79
2022/11/01 13:41:07;;;;;;;4.20;2.73;;;;;;;;;;5053095;28;20610;-80
2022/11/01 13:43:37;;;;;;;4.13;2.57;;;;;;;;;;5052824;28;20208;-79
2022/11/01 13:46:24;;;;;;;4.73;2.50;;;;;;;;;;5052438;28;20706;-79
2022/11/01 13:49:27;;;;;;;5.57;2.43;;;;;;;;;;5053120;28;20201;-79
2022/11/01 13:52:00;;;;;;;3.53;2.40;;;;;;;;;;5052683;28;20212;-79
2022/11/01 13:54:30;;;;;;;7.23;2.50;;;;;;;;;;5052926;28;20205;-79
2022/11/01 13:57:01;;;;;;;6.63;2.30;;;;;;;;;;5052618;28;20252;-79
2022/11/01 13:59:32;;;;;;;6.70;2.67;;;;;;;;;;5052635;28;20209;-78
2022/11/01 14:02:47;;;;;;;5.13;2.57;;;;;;;;;;5052767;28;20286;-79
2022/11/01 14:05:14;;;;;;;6.10;2.43;;;;;;;;;;5051940;28;20241;-78
2022/11/01 14:08:13;;;;;;;2.37;2.17;;;;;;;;;;5052170;28;20206;-78
2022/11/01 14:10:48;;;;;;;8.47;3.53;;;;;;;;;;5051991;28;20225;-78
2022/11/01 14:13:18;;;;;;;2.90;2.47;;;;;;;;;;5052930;28;20209;-78
2022/11/01 14:16:18;;;;;;;5.07;2.40;;;;;;;;;;5052410;28;20206;-79
2022/11/01 14:19:19;;;;;;;4.33;2.77;;;;;;;;;;5050580;28;20213;-79
2022/11/01 14:21:48;;;;;;;7.07;2.80;;;;;;;;;;5010555;28;20230;-78
2022/11/01 14:24:33;;;;;;;3.90;2.50;;;;;;;;;;5043977;28;20210;-79
2022/11/01 14:27:20;;;;;;;9.67;2.63;;;;;;;;;;5051989;28;20224;-79
2022/11/01 14:29:54;;;;;;;4.17;2.53;;;;;;;;;;5051663;28;20584;-78
2022/11/01 14:32:23;;;;;;;4.60;2.90;;;;;;;;;;5052237;28;20284;-79
2022/11/01 14:35:00;;;;;;;2.63;2.43;;;;;;;;;;5052123;28;20210;-79
2022/11/01 14:37:28;;;;;;;6.00;2.47;;;;;;;;;;5051879;28;20205;-79
2022/11/01 14:39:59;;;;;;;5.87;2.50;;;;;;;;;;5051545;28;20201;-79
2022/11/01 14:42:30;;;;;;;4.13;3.03;;;;;;;;;;5052050;28;20233;-80
2022/11/01 14:44:59;;;;;;;10.37;5.10;;;;;;;;;;5051587;28;20207;-78
2022/11/01 14:47:32;;;;;;;21.00;17.33;;;;;;;;;;5052078;28;20279;-79
2022/11/01 14:50:06;;;;;;;8.03;7.23;;;;;;;;;;5051344;28;20198;-79
2022/11/01 14:52:39;;;;;;;12.63;9.40;;;;;;;;;;5051794;28;20201;-79
2022/11/01 14:55:12;;;;;;;13.60;10.17;;;;;;;;;;5051441;28;20209;-79
2022/11/01 14:57:39;;;;;;;21.13;13.77;;;;;;;;;;5051801;28;20198;-79
2022/11/01 15:00:21;;;;;;;9.27;8.33;;;;;;;;;;5051664;28;20202;-79
2022/11/01 15:02:49;;;;;;;6.67;3.73;;;;;;;;;;5051341;28;20253;-79
2022/11/01 15:05:16;;;;;;;8.30;3.03;;;;;;;;;;5051181;28;20202;-79